Fermeuse, Canada
Current Conditions -  °F | °C
As of 3:00 PM on Friday 31 Oct 2014 (Local Time) from CYYT Reporting Station
Broken Clouds Broken Clouds  
Wind Chill: 42°   Ceiling: 3000
Heat Index: 46°   Visibility: 15mi
Dew Point: 39°   Wind: 8mph
Humidity: 76%   Direction: 330°NNW
Pressure: 29.94"   Gusts: NA
Location:  46.97°N, 52.97°W
Report Text: CYYT 311700Z 33007KT 15SM BKN030 08/04 A2994 RMK SC7 SLP143
Loading
Personal Weather Stations






























Interactive Weather Map
Tropical Storm Tracking
New forecast layout! Learn more

10-Day Weather Forecast

Advertisements
Track Severe Weather on mobile